Ana Sayfa
METAR-TAF:

METAR-TAF

Havaalanları :

Yap, Mikronezya

Enlem: 09-29N, Boylam: 138-05E, yükseklik: 28 m

Güncel hava durumu gözlemi

Rapor saat 03:50 UTC de 1 saat ve 0 dakika önce yapıldı.
Rüzgar değişken yönden 3 kt
Sıcaklık 30°C
Nem 75%
Basınç 1008 hPa
Görüş mesafesi: 19.3 km
1600 ft yükseklikte parçalı bulutlu
13000 ft yükseklikte parçalı bulutlu
30000 ft yükseklikte parçalı çok bulutlu

METAR: PTYA 230350Z VRB03KT 12SM SCT016 SCT130 BKN300 30/25 A2976 RMK SLP079 T02990247

Saat: 14:50 (04:50 UTC)

Tahmin

Rapor saat 23:26 UTC de 5 saat ve 24 dakika önce yapıldı.
Ayın 23'si saat 00 UTC'den ayın 23'si saat 24 UTC'ye kadar geçerli Tahmin
Rüzgar değişken yönden 5 kt
Görüş mesafesi: 10 km
1800 ft yükseklikte az bulutlu

TAF: PTYA 222326Z 2300/2324 VRB05KT P6SM FEW018

4.000'den fazla havaalanı için hava durumu gözlemleri ve tahminleri (METAR ve TAF raporları).

Kullanılabilir istasyonlar harita üzerinde sarı ve kırmızı noktalarla gösterilir.

İstasyonun adını görmek için fareyi noktanın üzerinde gezdirin.

Sonrasında hava gözlem ve tahminlerini görmek için tıklayın.

Haritayı değiştirmek için: yaklaştırmak için siyah artı işaretli yeşil düğmeye ve uzaklaştırmak için de eksi işaretli düğmeye hızla tıklayın; bitişik haritalar için yeşil okları kullanın.


METAR-TAF: